createdAt,value
2017-11-16T00:00:16.299Z,9.83
2017-11-16T00:02:44.732Z,11.47
2017-11-16T00:05:12.506Z,6.50
2017-11-16T00:07:40.162Z,10.30
2017-11-16T00:10:07.872Z,8.50
2017-11-16T00:12:35.547Z,7.63
2017-11-16T00:15:03.310Z,7.67
2017-11-16T00:17:30.979Z,7.80
2017-11-16T00:19:58.688Z,9.13
2017-11-16T00:22:26.356Z,9.50
2017-11-16T00:24:54.828Z,9.30
2017-11-16T00:27:22.496Z,8.20
2017-11-16T00:29:50.972Z,8.97
2017-11-16T00:32:19.392Z,8.17
2017-11-16T00:34:47.089Z,7.17
2017-11-16T00:37:14.743Z,8.03
2017-11-16T00:39:42.441Z,7.70
2017-11-16T00:42:10.141Z,8.20
2017-11-16T00:44:37.815Z,7.47
2017-11-16T00:47:05.524Z,8.20
2017-11-16T00:49:33.968Z,10.40
2017-11-16T00:52:01.675Z,8.37
2017-11-16T00:54:29.332Z,7.40
2017-11-16T00:56:57.652Z,8.00
2017-11-16T00:59:25.333Z,7.70
2017-11-16T01:01:53.036Z,8.00
2017-11-16T01:04:20.700Z,6.73
2017-11-16T01:06:48.400Z,8.07
2017-11-16T01:09:16.068Z,7.40
2017-11-16T01:11:43.849Z,9.20
2017-11-16T01:14:12.272Z,7.87
2017-11-16T01:16:39.971Z,7.53
2017-11-16T01:19:07.625Z,9.50
2017-11-16T01:21:35.324Z,8.40
2017-11-16T01:24:02.984Z,7.77
2017-11-16T01:26:30.685Z,9.13
2017-11-16T01:28:58.343Z,8.47
2017-11-16T01:31:26.045Z,8.40
2017-11-16T01:33:54.461Z,7.10
2017-11-16T01:36:22.161Z,6.20
2017-11-16T01:38:49.812Z,11.60
2017-11-16T01:41:17.521Z,8.20
2017-11-16T01:43:45.191Z,6.70
2017-11-16T01:46:12.885Z,6.20
2017-11-16T01:48:40.601Z,4.97
2017-11-16T01:51:08.262Z,5.33
2017-11-16T01:53:35.967Z,3.67
2017-11-16T01:56:03.654Z,3.43
2017-11-16T01:58:32.150Z,4.27
2017-11-16T02:00:59.872Z,3.60
2017-11-16T02:03:27.596Z,3.20
2017-11-16T02:05:55.275Z,3.93
2017-11-16T02:08:22.975Z,4.83
2017-11-16T02:10:51.409Z,3.40
2017-11-16T02:13:19.109Z,3.83
2017-11-16T02:15:47.531Z,7.10
2017-11-16T02:18:15.222Z,3.50
2017-11-16T02:20:42.929Z,3.33
2017-11-16T02:23:10.684Z,3.00
2017-11-16T02:25:38.386Z,3.47
2017-11-16T02:28:06.152Z,3.40
2017-11-16T02:30:33.860Z,3.77
2017-11-16T02:33:02.378Z,3.20
2017-11-16T02:35:30.087Z,4.07
2017-11-16T02:37:58.593Z,4.07
2017-11-16T02:40:26.322Z,4.77
2017-11-16T02:42:54.841Z,3.77
2017-11-16T02:45:22.543Z,4.57
2017-11-16T02:47:50.305Z,3.47
2017-11-16T02:50:18.021Z,4.77
2017-11-16T02:52:45.735Z,4.07
2017-11-16T02:55:13.496Z,3.40
2017-11-16T02:57:41.216Z,4.40
2017-11-16T03:00:08.989Z,3.73
2017-11-16T03:02:36.729Z,4.47
2017-11-16T03:05:04.492Z,3.43
2017-11-16T03:07:32.184Z,3.43
2017-11-16T03:09:59.941Z,3.50
2017-11-16T03:12:27.617Z,4.07
2017-11-16T03:14:55.328Z,3.60
2017-11-16T03:17:23.000Z,3.40
2017-11-16T03:19:50.751Z,3.77
2017-11-16T03:22:18.436Z,3.10
2017-11-16T03:24:46.162Z,4.00
2017-11-16T03:27:13.888Z,4.30
2017-11-16T03:29:42.453Z,3.43
2017-11-16T03:32:10.124Z,3.53
2017-11-16T03:34:37.874Z,3.57
2017-11-16T03:37:05.543Z,4.30
2017-11-16T03:39:33.267Z,4.13
2017-11-16T03:42:00.942Z,6.03
2017-11-16T03:44:28.644Z,4.17
2017-11-16T03:46:57.063Z,4.73
2017-11-16T03:49:24.793Z,5.17
2017-11-16T03:51:52.513Z,3.87
2017-11-16T03:54:20.208Z,3.97
2017-11-16T03:56:48.670Z,3.87
2017-11-16T03:59:16.408Z,4.20
2017-11-16T04:01:44.076Z,3.40
2017-11-16T04:04:11.731Z,3.50
2017-11-16T04:06:39.425Z,3.67
2017-11-16T04:09:07.839Z,3.30
2017-11-16T04:11:35.588Z,5.00
2017-11-16T04:14:03.276Z,4.13
2017-11-16T04:16:30.980Z,3.57
2017-11-16T04:18:59.431Z,4.30
2017-11-16T04:21:27.195Z,4.70
2017-11-16T04:23:54.875Z,4.90
2017-11-16T04:26:23.336Z,4.73
2017-11-16T04:28:50.996Z,4.80
2017-11-16T04:31:18.693Z,6.23
2017-11-16T04:33:46.369Z,5.07
2017-11-16T04:36:14.071Z,4.90
2017-11-16T04:38:41.725Z,5.13
2017-11-16T04:41:09.415Z,4.73
2017-11-16T04:43:37.827Z,6.30
2017-11-16T04:46:05.520Z,7.40
2017-11-16T04:48:33.165Z,5.60
2017-11-16T04:51:00.855Z,5.53
2017-11-16T04:53:28.505Z,5.37
2017-11-16T04:55:56.197Z,6.23
2017-11-16T04:58:24.391Z,5.60
2017-11-16T05:00:52.088Z,6.07
2017-11-16T05:03:19.763Z,6.80
2017-11-16T05:05:47.496Z,6.07
2017-11-16T05:08:15.191Z,6.67
2017-11-16T05:10:43.616Z,7.30
2017-11-16T05:13:11.308Z,6.53
2017-11-16T05:15:38.963Z,6.73
2017-11-16T05:18:06.656Z,7.80
2017-11-16T05:20:35.679Z,6.17
2017-11-16T05:23:03.447Z,8.50
2017-11-16T05:25:31.157Z,8.87
2017-11-16T05:27:59.624Z,6.30
2017-11-16T05:30:27.288Z,7.20
2017-11-16T05:32:55.022Z,7.33
2017-11-16T05:35:22.700Z,8.23
2017-11-16T05:37:50.419Z,8.30
2017-11-16T05:40:18.084Z,7.20
2017-11-16T05:42:45.820Z,9.67
2017-11-16T05:45:13.522Z,6.50
2017-11-16T05:47:41.256Z,8.13
2017-11-16T05:50:08.939Z,7.70
2017-11-16T05:52:36.637Z,6.80
2017-11-16T05:55:05.065Z,7.50
2017-11-16T05:57:32.785Z,7.73
2017-11-16T06:00:01.448Z,6.30
2017-11-16T06:02:29.180Z,9.63
2017-11-16T06:04:56.884Z,7.57
2017-11-16T06:07:25.309Z,10.40
2017-11-16T06:09:53.025Z,10.07
2017-11-16T06:12:21.441Z,9.37
2017-11-16T06:14:49.146Z,12.90
2017-11-16T06:17:16.840Z,9.93
2017-11-16T06:19:44.539Z,9.23
2017-11-16T06:22:12.198Z,8.80
2017-11-16T06:24:39.892Z,12.13
2017-11-16T06:27:08.312Z,11.10
2017-11-16T06:29:36.030Z,12.40
2017-11-16T06:32:04.456Z,9.33
2017-11-16T06:34:32.164Z,9.23
2017-11-16T06:36:59.824Z,9.77
2017-11-16T06:39:27.511Z,9.90
2017-11-16T06:41:55.157Z,11.37
2017-11-16T06:44:22.880Z,7.77
2017-11-16T06:46:50.525Z,9.83
2017-11-16T06:49:18.215Z,13.50
2017-11-16T06:51:45.869Z,15.07
2017-11-16T06:54:13.570Z,12.00
2017-11-16T06:56:41.229Z,14.07
2017-11-16T06:59:08.927Z,14.63
2017-11-16T07:01:36.577Z,14.00
2017-11-16T07:04:05.036Z,13.20
2017-11-16T07:06:32.692Z,17.00
2017-11-16T07:09:00.348Z,12.63
2017-11-16T07:11:28.088Z,14.90
2017-11-16T07:13:56.508Z,11.63
2017-11-16T07:16:24.208Z,14.23
2017-11-16T07:18:51.864Z,12.57
2017-11-16T07:21:19.564Z,12.20
2017-11-16T07:23:47.235Z,13.90
2017-11-16T07:26:14.980Z,13.77
2017-11-16T07:28:42.656Z,13.50
2017-11-16T07:31:10.357Z,15.83
2017-11-16T07:33:38.028Z,16.40
2017-11-16T07:36:05.749Z,17.03
2017-11-16T07:38:33.441Z,10.90
2017-11-16T07:41:01.199Z,12.80
2017-11-16T07:43:28.864Z,13.43
2017-11-16T07:45:56.597Z,14.17
2017-11-16T07:48:24.273Z,15.97
2017-11-16T07:50:52.036Z,13.67
2017-11-16T07:53:19.762Z,17.30
2017-11-16T07:55:47.466Z,16.77
2017-11-16T07:58:15.168Z,15.13
2017-11-16T08:00:42.895Z,12.90
2017-11-16T08:03:10.549Z,13.30
2017-11-16T08:05:38.245Z,15.13
2017-11-16T08:08:05.899Z,29.50
2017-11-16T08:10:33.563Z,19.03
2017-11-16T08:13:01.266Z,28.73
2017-11-16T08:15:29.752Z,28.60
2017-11-16T08:17:57.444Z,13.67
2017-11-16T08:20:25.868Z,17.30
2017-11-16T08:22:53.567Z,15.07
2017-11-16T08:25:21.228Z,15.30
2017-11-16T08:27:48.921Z,14.93
2017-11-16T08:30:16.578Z,13.77
2017-11-16T08:32:44.312Z,19.73
2017-11-16T08:35:12.763Z,33.43
2017-11-16T08:37:40.463Z,19.47
2017-11-16T08:40:08.913Z,16.70
2017-11-16T08:42:36.650Z,10.97
2017-11-16T08:45:04.369Z,11.90
2017-11-16T08:47:32.144Z,10.40
2017-11-16T08:49:59.864Z,11.73
2017-11-16T08:52:27.601Z,11.60
2017-11-16T08:54:55.312Z,11.17
2017-11-16T08:57:23.109Z,10.10
2017-11-16T08:59:50.816Z,9.97
2017-11-16T09:02:19.336Z,14.40
2017-11-16T09:04:47.033Z,14.03
2017-11-16T09:07:14.805Z,14.27
2017-11-16T09:09:42.522Z,14.20
2017-11-16T09:12:10.292Z,10.83
2017-11-16T09:14:38.257Z,11.03
2017-11-16T09:17:05.978Z,9.50
2017-11-16T09:19:33.780Z,10.80
2017-11-16T09:22:01.527Z,10.40
2017-11-16T09:24:29.288Z,12.80
2017-11-16T09:26:57.011Z,12.07
2017-11-16T09:29:25.504Z,17.87
2017-11-16T09:31:53.933Z,11.10
2017-11-16T09:34:21.646Z,12.37
2017-11-16T09:36:49.365Z,13.60
2017-11-16T09:39:17.116Z,11.67
2017-11-16T09:41:44.795Z,11.83
2017-11-16T09:44:12.492Z,9.97
2017-11-16T09:46:40.152Z,8.77
2017-11-16T09:49:07.889Z,9.63
2017-11-16T09:51:36.320Z,10.50
2017-11-16T09:54:04.023Z,10.00
2017-11-16T09:56:32.452Z,12.10
2017-11-16T09:59:00.190Z,10.07
2017-11-16T10:01:27.850Z,9.77
2017-11-16T10:03:55.553Z,8.83
2017-11-16T10:06:23.208Z,11.40
2017-11-16T10:08:50.928Z,9.87
2017-11-16T10:11:18.576Z,9.43
2017-11-16T10:13:46.288Z,13.20
2017-11-16T10:16:13.934Z,9.37
2017-11-16T10:18:41.598Z,33.10
2017-11-16T10:21:10.060Z,66.03
2017-11-16T10:23:37.720Z,33.53
2017-11-16T10:26:05.503Z,12.80
2017-11-16T10:28:33.163Z,10.43
2017-11-16T10:31:00.873Z,8.57
2017-11-16T10:33:29.307Z,12.77
2017-11-16T10:35:57.015Z,14.93
2017-11-16T10:38:24.685Z,11.40
2017-11-16T10:40:52.383Z,9.03
2017-11-16T10:43:20.076Z,9.37
2017-11-16T10:45:48.560Z,7.00
2017-11-16T10:48:17.005Z,7.70
2017-11-16T10:50:44.724Z,16.20
2017-11-16T10:53:12.410Z,10.10
2017-11-16T10:55:40.127Z,21.70
2017-11-16T10:58:07.793Z,8.50
2017-11-16T11:00:35.514Z,8.53
2017-11-16T11:03:03.172Z,8.57
2017-11-16T11:05:30.884Z,12.07
2017-11-16T11:07:58.546Z,8.03
2017-11-16T11:10:26.240Z,10.40
2017-11-16T11:12:53.892Z,9.20
2017-11-16T11:15:21.588Z,6.77
2017-11-16T11:17:50.087Z,8.60
2017-11-16T11:20:17.820Z,7.10
2017-11-16T11:22:45.485Z,9.40
2017-11-16T11:25:13.910Z,9.57
2017-11-16T11:27:41.612Z,9.10
2017-11-16T11:30:09.293Z,9.57
2017-11-16T11:32:37.764Z,11.80
2017-11-16T11:35:06.187Z,10.07
2017-11-16T11:37:33.889Z,8.07
2017-11-16T11:40:01.541Z,9.50
2017-11-16T11:42:30.172Z,9.13
2017-11-16T11:44:57.828Z,13.20
2017-11-16T11:47:25.591Z,10.03
2017-11-16T11:49:53.260Z,11.57
2017-11-16T11:52:20.960Z,10.00
2017-11-16T11:54:48.612Z,9.80
2017-11-16T11:57:16.308Z,13.13
2017-11-16T11:59:44.735Z,11.50
2017-11-16T12:02:12.432Z,11.43
2017-11-16T12:04:40.124Z,11.47
2017-11-16T12:07:07.864Z,12.23
2017-11-16T12:09:36.280Z,12.37
2017-11-16T12:12:04.000Z,13.80
2017-11-16T12:17:11.428Z,21.27
2017-11-16T12:19:39.085Z,15.13
2017-11-16T12:22:06.797Z,13.60
2017-11-16T12:24:34.457Z,15.37
2017-11-16T12:27:02.764Z,12.77
2017-11-16T12:29:31.279Z,16.00
2017-11-16T12:31:58.992Z,12.70
2017-11-16T12:34:27.517Z,14.87
2017-11-16T12:36:55.240Z,17.40
2017-11-16T12:39:23.758Z,16.40
2017-11-16T12:41:51.468Z,17.80
2017-11-16T12:44:20.117Z,19.03
2017-11-16T12:46:47.826Z,14.80
2017-11-16T12:49:15.577Z,20.30
2017-11-16T12:51:44.063Z,15.60
2017-11-16T12:54:12.577Z,16.60
2017-11-16T12:56:40.301Z,14.40
2017-11-16T12:59:08.800Z,18.40
2017-11-16T13:01:36.481Z,16.77
2017-11-16T13:04:04.184Z,18.20
2017-11-16T13:06:32.653Z,18.40
2017-11-16T13:09:00.397Z,18.50
2017-11-16T13:11:28.237Z,17.13
2017-11-16T13:13:55.937Z,16.80
2017-11-16T13:16:23.593Z,17.60
2017-11-16T13:18:51.438Z,16.23
2017-11-16T13:21:19.093Z,21.07
2017-11-16T13:23:46.798Z,22.03
2017-11-16T13:26:15.223Z,22.00
2017-11-16T13:28:42.933Z,18.13
2017-11-16T13:31:11.388Z,16.00
2017-11-16T13:33:39.048Z,16.53
2017-11-16T13:36:06.793Z,16.80
2017-11-16T13:38:34.484Z,16.10
2017-11-16T13:41:02.953Z,16.80
2017-11-16T13:43:31.394Z,17.77
2017-11-16T13:45:59.100Z,17.73
2017-11-16T13:48:27.745Z,20.70
2017-11-16T13:50:55.444Z,19.40
2017-11-16T13:53:23.945Z,21.87
2017-11-16T13:55:51.651Z,20.20
2017-11-16T13:58:19.310Z,21.40
2017-11-16T14:00:47.167Z,20.20
2017-11-16T14:03:14.841Z,24.97
2017-11-16T14:05:42.567Z,22.80
2017-11-16T14:08:10.263Z,22.40
2017-11-16T14:10:37.974Z,20.60
2017-11-16T14:13:05.636Z,20.53
2017-11-16T14:15:33.340Z,20.10
2017-11-16T14:18:01.001Z,18.83
2017-11-16T14:20:28.707Z,18.27
2017-11-16T14:22:56.359Z,21.00
2017-11-16T14:25:24.822Z,18.50
2017-11-16T14:27:53.247Z,19.00
2017-11-16T14:30:20.956Z,21.00
2017-11-16T14:32:48.618Z,16.60
2017-11-16T14:35:17.127Z,18.80
2017-11-16T14:37:44.796Z,18.17
2017-11-16T14:40:13.326Z,17.53
2017-11-16T14:42:41.095Z,17.37
2017-11-16T14:45:09.540Z,16.40
2017-11-16T14:47:37.251Z,16.17
2017-11-16T14:50:05.678Z,17.73
2017-11-16T14:52:33.377Z,18.70
2017-11-16T14:55:01.800Z,18.37
2017-11-16T14:57:29.517Z,18.20
2017-11-16T14:59:57.961Z,22.63
2017-11-16T15:02:25.669Z,24.13
2017-11-16T15:04:53.336Z,18.37
2017-11-16T15:07:21.077Z,20.43
2017-11-16T15:09:49.543Z,17.40
2017-11-16T15:12:17.243Z,18.33
2017-11-16T15:14:44.915Z,17.90
2017-11-16T15:17:12.617Z,20.37
2017-11-16T15:19:40.290Z,20.73
2017-11-16T15:22:08.773Z,21.90
2017-11-16T15:24:37.195Z,19.83
2017-11-16T15:27:04.891Z,20.13
2017-11-16T15:29:32.548Z,21.83
2017-11-16T15:32:00.289Z,19.10
2017-11-16T15:34:27.953Z,19.40
2017-11-16T15:36:55.656Z,17.63
2017-11-16T15:39:23.326Z,18.77
2017-11-16T15:41:51.065Z,21.40
2017-11-16T15:44:19.501Z,19.60
2017-11-16T15:46:47.192Z,17.53
2017-11-16T15:49:14.909Z,17.27
2017-11-16T15:51:42.568Z,18.10
2017-11-16T15:54:10.278Z,16.63
2017-11-16T15:56:38.713Z,17.90
2017-11-16T15:59:06.482Z,18.73
2017-11-16T16:01:34.149Z,19.17
2017-11-16T16:04:01.849Z,18.37
2017-11-16T16:06:30.267Z,21.33
2017-11-16T16:08:57.969Z,23.10
2017-11-16T16:11:26.461Z,18.97
2017-11-16T16:13:54.933Z,20.77
2017-11-16T16:16:22.624Z,17.20
2017-11-16T16:18:50.333Z,18.30
2017-11-16T16:21:17.993Z,18.10
2017-11-16T16:23:45.696Z,21.10
2017-11-16T16:26:13.352Z,19.37
2017-11-16T16:28:41.067Z,24.63
2017-11-16T16:31:08.753Z,24.60
2017-11-16T16:33:37.305Z,21.77
2017-11-16T16:36:04.996Z,26.33
2017-11-16T16:38:33.466Z,39.60
2017-11-16T16:41:01.909Z,27.40
2017-11-16T16:43:29.665Z,24.57
2017-11-16T16:45:57.345Z,24.47
2017-11-16T16:48:25.071Z,26.70
2017-11-16T16:50:52.749Z,28.30
2017-11-16T16:53:20.509Z,23.80
2017-11-16T16:55:48.272Z,23.67
2017-11-16T16:58:15.957Z,25.27
2017-11-16T17:00:43.714Z,23.53
2017-11-16T17:03:11.450Z,37.93
2017-11-16T17:05:39.198Z,28.90
2017-11-16T17:08:06.869Z,25.87
2017-11-16T17:10:34.599Z,24.30
2017-11-16T17:13:02.272Z,37.70
2017-11-16T17:15:30.015Z,21.50
2017-11-16T17:17:57.677Z,23.90
2017-11-16T17:20:25.404Z,27.77
2017-11-16T17:22:53.067Z,25.10
2017-11-16T17:25:21.545Z,26.60
2017-11-16T17:27:49.980Z,36.40
2017-11-16T17:30:17.689Z,46.33
2017-11-16T17:32:46.112Z,56.77
2017-11-16T17:35:13.818Z,34.30
2017-11-16T17:37:41.501Z,40.77
2017-11-16T17:40:09.233Z,39.60
2017-11-16T17:42:36.922Z,37.43
2017-11-16T17:45:04.685Z,42.07
2017-11-16T17:47:32.342Z,42.30
2017-11-16T17:50:00.049Z,37.08
2017-11-16T17:52:27.715Z,43.80
2017-11-16T17:54:55.427Z,45.33
2017-11-16T17:57:23.088Z,45.83
2017-11-16T17:59:50.766Z,48.17
2017-11-16T18:02:18.480Z,47.23
2017-11-16T18:04:46.908Z,54.10
2017-11-16T18:07:14.617Z,49.00
2017-11-16T18:09:43.076Z,48.47
2017-11-16T18:12:10.854Z,46.70
2017-11-16T18:14:38.524Z,49.53
2017-11-16T18:17:06.991Z,50.07
2017-11-16T18:19:34.659Z,46.47
2017-11-16T18:22:03.133Z,46.57
2017-11-16T18:24:31.632Z,46.73
2017-11-16T18:27:00.981Z,44.63
2017-11-16T18:29:28.731Z,65.00
2017-11-16T18:31:56.432Z,54.70
2017-11-16T18:34:24.881Z,59.83
2017-11-16T18:36:52.580Z,53.87
2017-11-16T18:39:21.006Z,52.97
2017-11-16T18:41:48.717Z,52.00
2017-11-16T18:44:17.149Z,50.10
2017-11-16T18:46:44.853Z,52.33
2017-11-16T18:49:13.272Z,50.03
2017-11-16T18:51:40.988Z,52.13
2017-11-16T18:54:09.404Z,54.20
2017-11-16T18:56:37.101Z,50.47
2017-11-16T18:59:04.779Z,52.20
2017-11-16T19:01:33.267Z,52.67
2017-11-16T19:04:01.688Z,44.73
2017-11-16T19:06:29.357Z,49.53
2017-11-16T19:08:57.061Z,45.77
2017-11-16T19:11:25.481Z,43.17
2017-11-16T19:13:53.185Z,54.10
2017-11-16T19:16:21.612Z,50.70
2017-11-16T19:18:49.308Z,42.50
2017-11-16T19:21:16.971Z,48.03
2017-11-16T19:23:44.673Z,46.33
2017-11-16T19:26:12.328Z,45.07
2017-11-16T19:28:40.057Z,42.53
2017-11-16T19:31:07.739Z,51.17
2017-11-16T19:33:36.201Z,50.10
2017-11-16T19:36:04.676Z,39.27
2017-11-16T19:38:33.157Z,45.87
2017-11-16T19:41:01.602Z,50.67
2017-11-16T19:43:29.313Z,49.30
2017-11-16T19:45:57.021Z,40.27
2017-11-16T19:48:24.740Z,43.17
2017-11-16T19:50:52.416Z,46.50
2017-11-16T19:53:20.162Z,52.77
2017-11-16T19:55:48.305Z,50.27
2017-11-16T19:58:16.054Z,49.27
2017-11-16T20:00:44.511Z,44.47
2017-11-16T20:03:12.245Z,46.93
2017-11-16T20:05:39.944Z,42.47
2017-11-16T20:08:07.656Z,41.47
2017-11-16T20:10:35.372Z,40.50
2017-11-16T20:13:03.045Z,38.37
2017-11-16T20:15:31.516Z,42.10
2017-11-16T20:17:59.264Z,41.73
2017-11-16T20:20:26.970Z,36.83
2017-11-16T20:22:54.653Z,34.80
2017-11-16T20:25:22.365Z,36.40
2017-11-16T20:27:50.809Z,34.87
2017-11-16T20:30:18.544Z,41.67
2017-11-16T20:32:46.226Z,38.90
2017-11-16T20:35:13.979Z,42.93
2017-11-16T20:37:47.320Z,36.57
2017-11-16T20:43:38.343Z,42.00
2017-11-16T20:46:12.523Z,38.20
2017-11-16T20:48:45.981Z,44.33
2017-11-16T20:51:16.247Z,42.20
2017-11-16T20:56:45.384Z,39.90
2017-11-16T20:59:13.853Z,41.70
2017-11-16T21:01:42.325Z,36.33
2017-11-16T21:04:09.989Z,39.67
2017-11-16T21:06:37.730Z,39.83
2017-11-16T21:09:05.465Z,44.23
2017-11-16T21:11:37.583Z,42.77
2017-11-16T21:14:09.161Z,46.00
2017-11-16T21:16:40.310Z,41.97
2017-11-16T21:19:11.561Z,39.83
2017-11-16T21:21:44.035Z,39.60
2017-11-16T21:24:14.674Z,42.87
2017-11-16T21:26:46.370Z,42.57
2017-11-16T21:29:16.742Z,42.87
2017-11-16T21:31:47.524Z,36.83
2017-11-16T21:34:17.959Z,36.70
2017-11-16T21:36:50.588Z,44.27
2017-11-16T21:39:22.486Z,39.57
2017-11-16T21:41:50.373Z,38.43
2017-11-16T21:44:18.072Z,46.03
2017-11-16T21:46:45.764Z,38.10
2017-11-16T21:49:14.184Z,39.03
2017-11-16T21:51:41.893Z,38.93
2017-11-16T21:54:09.559Z,41.03
2017-11-16T21:56:37.277Z,39.50
2017-11-16T21:59:04.931Z,38.53
2017-11-16T22:01:32.632Z,37.47
2017-11-16T22:04:00.285Z,38.90
2017-11-16T22:06:27.944Z,43.60
2017-11-16T22:08:55.644Z,42.30
2017-11-16T22:11:23.300Z,42.10
2017-11-16T22:13:50.999Z,39.47
2017-11-16T22:16:19.418Z,39.83
2017-11-16T22:18:47.889Z,36.37
2017-11-16T22:21:15.551Z,44.70
2017-11-16T22:23:44.031Z,44.83
2017-11-16T22:26:12.460Z,40.33
2017-11-16T22:28:40.177Z,41.33
2017-11-16T22:31:08.596Z,39.83
2017-11-16T22:33:36.297Z,42.40
2017-11-16T22:36:03.992Z,47.00
2017-11-16T22:38:31.697Z,42.30
2017-11-16T22:40:59.361Z,42.53
2017-11-16T22:43:27.060Z,41.83
2017-11-16T22:45:55.484Z,43.33
2017-11-16T22:48:23.957Z,47.30
2017-11-16T22:50:51.617Z,39.00
2017-11-16T22:53:19.325Z,41.30
2017-11-16T22:55:47.761Z,41.33
2017-11-16T22:58:15.460Z,40.27
2017-11-16T23:00:43.888Z,38.77
2017-11-16T23:03:11.600Z,41.30
2017-11-16T23:05:40.027Z,35.10
2017-11-16T23:08:07.680Z,33.63
2017-11-16T23:10:35.372Z,36.50
2017-11-16T23:13:03.032Z,38.73
2017-11-16T23:15:30.741Z,39.60
2017-11-16T23:17:58.400Z,41.03
2017-11-16T23:20:26.113Z,37.50
2017-11-16T23:22:53.769Z,36.23
2017-11-16T23:25:21.488Z,33.63
2017-11-16T23:27:49.158Z,38.30
2017-11-16T23:30:16.872Z,37.47
2017-11-16T23:32:45.302Z,39.43
2017-11-16T23:35:13.008Z,39.93
2017-11-16T23:37:41.432Z,40.10
2017-11-16T23:40:09.134Z,37.73
2017-11-16T23:42:36.800Z,36.80
2017-11-16T23:45:05.272Z,38.00
2017-11-16T23:47:32.977Z,41.20
2017-11-16T23:50:00.676Z,36.20
2017-11-16T23:52:28.332Z,42.40
2017-11-16T23:54:56.036Z,38.57
2017-11-16T23:57:24.461Z,37.93
2017-11-16T23:59:52.167Z,34.23
